createdAt,value
2022-10-28T00:01:21.584Z,100.00
2022-10-28T00:03:50.956Z,100.00
2022-10-28T00:06:20.470Z,100.00
2022-10-28T00:08:47.871Z,100.00
2022-10-28T00:11:16.587Z,100.00
2022-10-28T00:14:05.540Z,100.00
2022-10-28T00:16:52.167Z,100.00
2022-10-28T00:19:38.520Z,100.00
2022-10-28T00:22:25.216Z,100.00
2022-10-28T00:25:11.642Z,100.00
2022-10-28T00:27:58.069Z,100.00
2022-10-28T00:30:24.517Z,100.00
2022-10-28T00:32:51.318Z,100.00
2022-10-28T00:35:18.174Z,100.00
2022-10-28T00:37:44.736Z,100.00
2022-10-28T00:40:11.786Z,100.00
2022-10-28T00:42:38.162Z,100.00
2022-10-28T00:45:05.646Z,100.00
2022-10-28T00:47:42.691Z,100.00
2022-10-28T00:50:22.833Z,100.00
2022-10-28T00:52:55.614Z,100.00
2022-10-28T00:55:23.175Z,100.00
2022-10-28T00:57:51.184Z,100.00
2022-10-28T01:00:18.272Z,100.00
2022-10-28T01:02:48.039Z,100.00
2022-10-28T01:05:18.994Z,100.00
2022-10-28T01:07:45.447Z,100.00
2022-10-28T01:10:14.751Z,100.00
2022-10-28T01:13:06.470Z,100.00
2022-10-28T01:15:46.350Z,100.00
2022-10-28T01:18:54.319Z,100.00
2022-10-28T01:21:45.325Z,100.00
2022-10-28T01:24:35.547Z,100.00
2022-10-28T01:27:12.962Z,100.00
2022-10-28T01:29:54.623Z,100.00
2022-10-28T01:32:32.028Z,100.00
2022-10-28T01:35:14.807Z,100.00
2022-10-28T01:38:14.940Z,100.00
2022-10-28T01:41:08.302Z,100.00
2022-10-28T01:43:50.151Z,100.00
2022-10-28T01:46:24.769Z,100.00
2022-10-28T01:48:58.816Z,100.00
2022-10-28T01:51:44.723Z,100.00
2022-10-28T01:54:16.255Z,100.00
2022-10-28T01:56:46.724Z,100.00
2022-10-28T01:59:20.337Z,100.00
2022-10-28T02:01:47.235Z,100.00
2022-10-28T02:04:14.239Z,100.00
2022-10-28T02:06:43.927Z,100.00
2022-10-28T02:09:20.590Z,100.00
2022-10-28T02:12:24.796Z,100.00
2022-10-28T02:17:40.255Z,100.00
2022-10-28T02:20:26.264Z,100.00
2022-10-28T02:23:01.600Z,100.00
2022-10-28T02:25:43.396Z,100.00
2022-10-28T02:28:15.632Z,100.00
2022-10-28T02:30:57.895Z,100.00
2022-10-28T02:33:29.264Z,100.00
2022-10-28T02:36:06.410Z,100.00
2022-10-28T02:38:40.163Z,100.00
2022-10-28T02:41:15.641Z,100.00
2022-10-28T02:43:43.984Z,100.00
2022-10-28T02:46:13.262Z,100.00
2022-10-28T02:48:52.648Z,100.00
2022-10-28T02:51:30.327Z,100.00
2022-10-28T02:54:17.650Z,100.00
2022-10-28T02:56:54.651Z,100.00
2022-10-28T02:59:24.844Z,100.00
2022-10-28T03:01:51.559Z,100.00
2022-10-28T03:04:17.971Z,100.00
2022-10-28T03:06:44.461Z,100.00
2022-10-28T03:09:10.823Z,100.00
2022-10-28T03:11:37.536Z,100.00
2022-10-28T03:14:04.325Z,100.00
2022-10-28T03:16:30.921Z,100.00
2022-10-28T03:18:57.409Z,100.00
2022-10-28T03:21:24.106Z,100.00
2022-10-28T03:23:50.992Z,100.00
2022-10-28T03:26:18.006Z,100.00
2022-10-28T03:28:44.602Z,100.00
2022-10-28T03:31:12.236Z,100.00
2022-10-28T03:33:38.592Z,100.00
2022-10-28T03:36:05.450Z,100.00
2022-10-28T03:38:32.361Z,100.00
2022-10-28T03:40:59.263Z,100.00
2022-10-28T03:43:25.650Z,100.00
2022-10-28T03:45:52.495Z,100.00
2022-10-28T03:48:19.419Z,100.00
2022-10-28T03:50:45.789Z,100.00
2022-10-28T03:53:12.604Z,100.00
2022-10-28T03:55:39.190Z,100.00
2022-10-28T03:58:05.776Z,100.00
2022-10-28T04:00:32.248Z,100.00
2022-10-28T04:02:59.168Z,100.00
2022-10-28T04:05:25.547Z,100.00
2022-10-28T04:07:54.224Z,100.00
2022-10-28T04:10:20.628Z,100.00
2022-10-28T04:12:47.457Z,100.00
2022-10-28T04:15:13.938Z,100.00
2022-10-28T04:17:40.646Z,100.00
2022-10-28T04:20:07.802Z,100.00
2022-10-28T04:22:34.554Z,100.00
2022-10-28T04:25:00.979Z,100.00
2022-10-28T04:27:27.358Z,100.00
2022-10-28T04:29:54.245Z,100.00
2022-10-28T04:32:20.603Z,100.00
2022-10-28T04:34:47.559Z,100.00
2022-10-28T04:37:17.006Z,100.00
2022-10-28T04:39:47.119Z,100.00
2022-10-28T04:42:13.642Z,100.00
2022-10-28T04:44:40.323Z,100.00
2022-10-28T04:47:06.986Z,100.00
2022-10-28T04:49:36.663Z,100.00
2022-10-28T04:52:05.418Z,100.00
2022-10-28T04:54:32.082Z,100.00
2022-10-28T04:56:58.467Z,100.00
2022-10-28T04:59:25.376Z,100.00
2022-10-28T05:01:51.811Z,100.00
2022-10-28T05:04:18.340Z,100.00
2022-10-28T05:06:45.128Z,100.00
2022-10-28T05:09:12.428Z,100.00
2022-10-28T05:11:38.828Z,100.00
2022-10-28T05:14:05.509Z,100.00
2022-10-28T05:16:32.147Z,100.00
2022-10-28T05:18:58.839Z,100.00
2022-10-28T05:21:25.562Z,100.00
2022-10-28T05:23:52.055Z,100.00
2022-10-28T05:26:18.543Z,100.00
2022-10-28T05:28:49.312Z,100.00
2022-10-28T05:31:16.301Z,100.00
2022-10-28T05:33:42.698Z,100.00
2022-10-28T05:36:09.459Z,100.00
2022-10-28T05:38:35.901Z,100.00
2022-10-28T05:41:03.564Z,100.00
2022-10-28T05:43:29.978Z,100.00
2022-10-28T05:45:57.646Z,100.00
2022-10-28T05:48:25.001Z,100.00
2022-10-28T05:50:51.570Z,100.00
2022-10-28T05:53:18.445Z,100.00
2022-10-28T05:55:47.626Z,100.00
2022-10-28T05:58:15.085Z,100.00
2022-10-28T06:00:41.782Z,100.00
2022-10-28T06:03:11.950Z,100.00
2022-10-28T06:05:42.117Z,100.00
2022-10-28T06:08:10.203Z,100.00
2022-10-28T06:10:37.214Z,100.00
2022-10-28T06:13:02.599Z,100.00
2022-10-28T06:15:29.234Z,100.00
2022-10-28T06:17:56.372Z,100.00
2022-10-28T06:20:22.812Z,100.00
2022-10-28T06:22:51.088Z,100.00
2022-10-28T06:25:19.650Z,100.00
2022-10-28T06:27:57.028Z,100.00
2022-10-28T06:30:25.291Z,100.00
2022-10-28T06:32:54.383Z,100.00
2022-10-28T06:35:21.082Z,100.00
2022-10-28T06:37:52.592Z,100.00
2022-10-28T06:40:19.509Z,100.00
2022-10-28T06:42:45.873Z,100.00
2022-10-28T06:45:12.440Z,100.00
2022-10-28T06:47:41.594Z,100.00
2022-10-28T06:50:08.956Z,100.00
2022-10-28T06:52:35.463Z,100.00
2022-10-28T06:55:02.178Z,100.00
2022-10-28T06:57:29.374Z,100.00
2022-10-28T06:59:55.924Z,100.00
2022-10-28T07:02:22.793Z,100.00
2022-10-28T07:04:49.302Z,100.00
2022-10-28T07:07:16.034Z,100.00
2022-10-28T07:09:44.522Z,100.00
2022-10-28T07:12:10.979Z,100.00
2022-10-28T07:14:37.729Z,100.00
2022-10-28T07:17:04.434Z,100.00
2022-10-28T07:19:31.311Z,100.00
2022-10-28T07:21:58.090Z,100.00
2022-10-28T07:24:24.561Z,100.00
2022-10-28T07:26:53.103Z,100.00
2022-10-28T07:29:22.082Z,100.00
2022-10-28T07:31:48.455Z,100.00
2022-10-28T07:34:15.500Z,100.00
2022-10-28T07:36:42.129Z,100.00
2022-10-28T07:39:10.064Z,100.00
2022-10-28T07:41:37.312Z,100.00
2022-10-28T07:44:03.827Z,100.00
2022-10-28T07:46:30.720Z,100.00
2022-10-28T07:48:57.108Z,100.00
2022-10-28T07:51:23.505Z,100.00
2022-10-28T07:53:49.878Z,100.00
2022-10-28T07:56:16.532Z,100.00
2022-10-28T07:58:44.797Z,100.00
2022-10-28T08:01:13.704Z,100.00
2022-10-28T08:03:40.247Z,100.00
2022-10-28T08:06:17.498Z,100.00
2022-10-28T08:08:45.235Z,100.00
2022-10-28T08:11:16.600Z,100.00
2022-10-28T08:13:43.559Z,100.00
2022-10-28T08:16:10.567Z,100.00
2022-10-28T08:18:38.611Z,100.00
2022-10-28T08:21:07.328Z,100.00
2022-10-28T08:23:34.215Z,100.00
2022-10-28T08:26:01.249Z,100.00
2022-10-28T08:28:27.750Z,100.00
2022-10-28T08:31:08.359Z,100.00
2022-10-28T08:33:37.912Z,100.00
2022-10-28T08:36:05.065Z,100.00
2022-10-28T08:38:31.497Z,100.00
2022-10-28T08:41:25.896Z,100.00
2022-10-28T08:44:04.665Z,100.00
2022-10-28T08:46:37.576Z,100.00
2022-10-28T08:49:11.972Z,100.00
2022-10-28T08:51:45.263Z,100.00
2022-10-28T08:54:24.169Z,100.00
2022-10-28T08:56:51.909Z,100.00
2022-10-28T08:59:29.807Z,100.00
2022-10-28T09:02:03.773Z,100.00
2022-10-28T09:04:43.351Z,100.00
2022-10-28T09:07:22.274Z,100.00
2022-10-28T09:09:50.488Z,100.00
2022-10-28T09:12:40.627Z,100.00
2022-10-28T09:15:22.715Z,100.00
2022-10-28T09:17:54.721Z,100.00
2022-10-28T09:20:48.352Z,100.00
2022-10-28T09:23:22.636Z,100.00
2022-10-28T09:26:02.202Z,100.00
2022-10-28T09:28:53.521Z,100.00
2022-10-28T09:31:47.411Z,100.00
2022-10-28T09:34:23.881Z,100.00
2022-10-28T09:37:14.093Z,100.00
2022-10-28T09:39:55.166Z,100.00
2022-10-28T09:42:27.396Z,100.00
2022-10-28T09:45:06.232Z,100.00
2022-10-28T09:47:43.239Z,100.00
2022-10-28T09:50:17.318Z,100.00
2022-10-28T09:52:59.182Z,100.00
2022-10-28T09:55:25.791Z,100.00
2022-10-28T09:57:52.602Z,100.00
2022-10-28T10:00:19.449Z,100.00
2022-10-28T10:02:45.993Z,100.00
2022-10-28T10:05:17.006Z,97.33
2022-10-28T10:08:17.863Z,98.24
2022-10-28T10:11:04.044Z,93.76
2022-10-28T10:13:41.291Z,83.82
2022-10-28T10:16:40.999Z,83.12
2022-10-28T10:19:11.477Z,82.98
2022-10-28T10:21:51.100Z,81.59
2022-10-28T10:24:31.271Z,77.01
2022-10-28T10:27:12.193Z,72.83
2022-10-28T10:29:45.459Z,72.32
2022-10-28T10:32:19.616Z,74.03
2022-10-28T10:35:02.266Z,67.76
2022-10-28T10:37:36.104Z,67.59
2022-10-28T10:40:08.085Z,66.39
2022-10-28T10:42:39.258Z,66.48
2022-10-28T10:45:14.928Z,65.69
2022-10-28T10:47:42.144Z,65.23
2022-10-28T10:50:29.375Z,65.97
2022-10-28T10:52:59.306Z,66.52
2022-10-28T10:55:38.921Z,66.04
2022-10-28T10:58:07.345Z,64.78
2022-10-28T11:00:44.467Z,65.28
2022-10-28T11:03:19.012Z,63.32
2022-10-28T11:06:05.342Z,62.96
2022-10-28T11:08:41.265Z,62.54
2022-10-28T11:11:20.078Z,62.49
2022-10-28T11:13:48.610Z,60.82
2022-10-28T11:16:22.007Z,60.28
2022-10-28T11:18:51.552Z,59.54
2022-10-28T11:21:36.897Z,59.60
2022-10-28T11:24:28.019Z,58.40
2022-10-28T11:27:15.847Z,56.66
2022-10-28T11:29:42.571Z,55.44
2022-10-28T11:32:54.638Z,55.29
2022-10-28T11:35:56.478Z,54.92
2022-10-28T11:38:34.467Z,53.63
2022-10-28T11:41:10.093Z,53.12
2022-10-28T11:44:00.867Z,52.32
2022-10-28T11:46:40.881Z,52.19
2022-10-28T11:49:32.354Z,50.42
2022-10-28T11:52:01.942Z,50.62
2022-10-28T11:54:43.027Z,50.72
2022-10-28T11:57:14.905Z,50.10
2022-10-28T12:00:00.197Z,50.27
2022-10-28T12:02:37.771Z,49.87
2022-10-28T12:05:23.600Z,50.35
2022-10-28T12:08:11.273Z,50.48
2022-10-28T12:10:58.771Z,51.75
2022-10-28T12:16:44.075Z,50.40
2022-10-28T12:19:26.858Z,51.00
2022-10-28T12:22:11.640Z,50.74
2022-10-28T12:24:40.965Z,50.76
2022-10-28T12:27:18.050Z,50.33
2022-10-28T12:29:51.497Z,49.31
2022-10-28T12:32:23.197Z,48.86
2022-10-28T12:35:07.837Z,49.45
2022-10-28T12:37:42.123Z,46.93
2022-10-28T12:40:20.539Z,48.39
2022-10-28T12:42:58.987Z,47.52
2022-10-28T12:45:26.534Z,47.97
2022-10-28T12:48:15.103Z,49.46
2022-10-28T12:50:51.970Z,49.68
2022-10-28T12:53:34.569Z,50.21
2022-10-28T12:56:03.176Z,49.97
2022-10-28T12:58:41.905Z,52.18
2022-10-28T13:01:12.680Z,51.15
2022-10-28T13:03:39.974Z,50.76
2022-10-28T13:06:09.430Z,51.30
2022-10-28T13:08:38.788Z,51.96
2022-10-28T13:11:21.134Z,51.87
2022-10-28T13:14:16.161Z,51.76
2022-10-28T13:16:42.774Z,49.07
2022-10-28T13:19:24.410Z,48.73
2022-10-28T13:22:15.987Z,51.26
2022-10-28T13:24:58.254Z,52.17
2022-10-28T13:27:25.976Z,51.57
2022-10-28T13:29:56.150Z,51.91
2022-10-28T13:32:41.507Z,52.26
2022-10-28T13:35:13.102Z,53.96
2022-10-28T13:37:40.755Z,52.53
2022-10-28T13:40:32.585Z,53.73
2022-10-28T13:43:01.100Z,54.26
2022-10-28T13:45:49.505Z,54.93
2022-10-28T13:48:28.946Z,54.69
2022-10-28T13:51:11.107Z,54.91
2022-10-28T13:53:46.817Z,55.45
2022-10-28T13:56:26.747Z,56.01
2022-10-28T13:59:03.437Z,55.40
2022-10-28T14:02:01.441Z,55.01
2022-10-28T14:04:39.125Z,54.40
2022-10-28T14:07:08.520Z,54.57
2022-10-28T14:09:36.690Z,54.05
2022-10-28T14:12:17.376Z,52.64
2022-10-28T14:15:17.836Z,51.34
2022-10-28T14:17:49.337Z,50.93
2022-10-28T14:20:26.923Z,49.47
2022-10-28T14:22:54.566Z,49.94
2022-10-28T14:25:59.842Z,50.84
2022-10-28T14:28:32.493Z,51.09
2022-10-28T14:31:11.474Z,52.02
2022-10-28T14:33:54.765Z,52.01
2022-10-28T14:36:33.997Z,51.33
2022-10-28T14:39:04.032Z,52.59
2022-10-28T14:42:01.980Z,52.85
2022-10-28T14:44:47.452Z,53.99
2022-10-28T14:47:46.714Z,55.29
2022-10-28T14:50:21.148Z,55.88
2022-10-28T14:52:50.457Z,55.64
2022-10-28T14:55:30.039Z,53.39
2022-10-28T14:58:22.834Z,54.13
2022-10-28T15:01:22.879Z,54.63
2022-10-28T15:04:02.151Z,55.53
2022-10-28T15:06:39.250Z,54.07
2022-10-28T15:09:17.750Z,54.65
2022-10-28T15:11:49.193Z,52.27
2022-10-28T15:14:25.313Z,52.05
2022-10-28T15:16:52.552Z,53.00
2022-10-28T15:19:21.976Z,53.57
2022-10-28T15:22:07.349Z,53.27
2022-10-28T15:24:34.097Z,53.94
2022-10-28T15:27:00.588Z,52.49
2022-10-28T15:29:27.366Z,53.15
2022-10-28T15:32:23.155Z,54.88
2022-10-28T15:34:50.233Z,55.63
2022-10-28T15:37:25.213Z,55.56
2022-10-28T15:40:12.374Z,56.51
2022-10-28T15:42:42.303Z,58.45
2022-10-28T15:45:23.743Z,56.30
2022-10-28T15:47:50.674Z,55.58
2022-10-28T15:50:17.058Z,56.67
2022-10-28T15:52:48.182Z,57.36
2022-10-28T15:55:35.838Z,56.95
2022-10-28T15:58:18.081Z,59.37
2022-10-28T16:00:53.953Z,57.83
2022-10-28T16:03:41.654Z,58.92
2022-10-28T16:06:36.991Z,59.67
2022-10-28T16:09:32.212Z,59.42
2022-10-28T16:12:02.109Z,59.83
2022-10-28T16:14:41.861Z,58.48
2022-10-28T16:17:27.223Z,58.85
2022-10-28T16:20:26.916Z,59.99
2022-10-28T16:22:53.935Z,61.85
2022-10-28T16:25:22.121Z,60.80
2022-10-28T16:27:50.778Z,60.60
2022-10-28T16:30:17.914Z,62.27
2022-10-28T16:32:48.105Z,60.55
2022-10-28T16:35:16.225Z,60.12
2022-10-28T16:37:45.801Z,61.91
2022-10-28T16:43:01.392Z,62.38
2022-10-28T16:45:28.165Z,62.17
2022-10-28T16:47:55.168Z,65.46
2022-10-28T16:50:21.950Z,66.07
2022-10-28T16:52:48.577Z,65.24
2022-10-28T16:55:19.442Z,67.67
2022-10-28T16:57:45.858Z,65.36
2022-10-28T17:00:15.734Z,67.34
2022-10-28T17:02:42.664Z,66.96
2022-10-28T17:05:20.238Z,65.90
2022-10-28T17:07:47.286Z,65.57
2022-10-28T17:10:14.305Z,65.05
2022-10-28T17:12:41.066Z,65.90
2022-10-28T17:15:09.849Z,67.30
2022-10-28T17:17:36.290Z,66.94
2022-10-28T17:20:04.275Z,67.39
2022-10-28T17:22:30.955Z,67.03
2022-10-28T17:24:57.589Z,68.15
2022-10-28T17:27:24.053Z,68.30
2022-10-28T17:29:50.734Z,68.07
2022-10-28T17:32:17.216Z,67.00
2022-10-28T17:34:43.583Z,68.85
2022-10-28T17:37:10.403Z,66.38
2022-10-28T17:39:37.754Z,66.70
2022-10-28T17:42:04.206Z,66.84
2022-10-28T17:44:30.790Z,68.21
2022-10-28T17:46:57.379Z,67.88
2022-10-28T17:49:24.031Z,69.44
2022-10-28T17:51:51.667Z,69.56
2022-10-28T17:54:18.139Z,70.77
2022-10-28T17:56:45.226Z,70.78
2022-10-28T17:59:12.081Z,69.89
2022-10-28T18:01:38.605Z,71.43
2022-10-28T18:04:05.968Z,72.32
2022-10-28T18:06:32.692Z,72.90
2022-10-28T18:08:59.079Z,73.21
2022-10-28T18:11:27.216Z,73.56
2022-10-28T18:13:55.774Z,73.05
2022-10-28T18:16:24.199Z,74.33
2022-10-28T18:18:51.711Z,75.75
2022-10-28T18:21:18.212Z,77.94
2022-10-28T18:23:44.833Z,80.14
2022-10-28T18:26:15.861Z,81.02
2022-10-28T18:28:43.755Z,81.85
2022-10-28T18:31:15.683Z,82.16
2022-10-28T18:33:43.279Z,82.76
2022-10-28T18:36:18.632Z,83.26
2022-10-28T18:38:45.282Z,84.62
2022-10-28T18:41:14.770Z,85.13
2022-10-28T18:43:41.893Z,85.71
2022-10-28T18:46:08.398Z,86.15
2022-10-28T18:48:35.120Z,86.60
2022-10-28T18:51:07.437Z,85.95
2022-10-28T18:53:38.977Z,87.15
2022-10-28T18:56:08.036Z,89.15
2022-10-28T18:58:34.834Z,89.46
2022-10-28T19:01:11.638Z,90.21
2022-10-28T19:03:38.935Z,90.30
2022-10-28T19:06:11.547Z,91.04
2022-10-28T19:08:39.339Z,91.66
2022-10-28T19:11:07.087Z,92.55
2022-10-28T19:13:38.847Z,92.91
2022-10-28T19:16:05.643Z,92.99
2022-10-28T19:18:35.623Z,93.26
2022-10-28T19:21:12.383Z,94.06
2022-10-28T19:23:40.042Z,94.67
2022-10-28T19:26:07.915Z,95.35
2022-10-28T19:28:39.455Z,95.26
2022-10-28T19:31:09.089Z,95.26
2022-10-28T19:33:38.225Z,95.43
2022-10-28T19:36:18.865Z,95.35
2022-10-28T19:38:46.902Z,95.64
2022-10-28T19:41:18.715Z,97.04
2022-10-28T19:43:45.453Z,97.24
2022-10-28T19:46:16.649Z,99.27
2022-10-28T19:48:48.064Z,99.47
2022-10-28T19:51:23.692Z,99.53
2022-10-28T19:53:58.569Z,100.00
2022-10-28T19:56:25.719Z,100.00
2022-10-28T19:58:55.415Z,100.00
2022-10-28T20:01:23.692Z,100.00
2022-10-28T20:03:51.558Z,100.00
2022-10-28T20:06:20.396Z,100.00
2022-10-28T20:08:48.222Z,100.00
2022-10-28T20:11:23.096Z,100.00
2022-10-28T20:13:57.712Z,100.00
2022-10-28T20:16:25.784Z,100.00
2022-10-28T20:18:54.861Z,100.00
2022-10-28T20:21:23.439Z,100.00
2022-10-28T20:23:55.227Z,100.00
2022-10-28T20:26:25.998Z,100.00
2022-10-28T20:28:52.625Z,100.00
2022-10-28T20:31:22.445Z,100.00
2022-10-28T20:33:51.338Z,100.00
2022-10-28T20:36:24.979Z,100.00
2022-10-28T20:38:56.431Z,100.00
2022-10-28T20:41:24.419Z,100.00
2022-10-28T20:43:51.905Z,100.00
2022-10-28T20:46:20.336Z,100.00
2022-10-28T20:48:48.632Z,100.00
2022-10-28T20:51:15.732Z,100.00
2022-10-28T20:53:42.450Z,100.00
2022-10-28T20:56:16.548Z,100.00
2022-10-28T20:58:42.906Z,100.00
2022-10-28T21:01:18.803Z,100.00
2022-10-28T21:03:46.148Z,100.00
2022-10-28T21:06:15.465Z,100.00
2022-10-28T21:08:42.822Z,100.00
2022-10-28T21:11:13.442Z,100.00
2022-10-28T21:13:40.672Z,100.00
2022-10-28T21:16:09.321Z,100.00
2022-10-28T21:18:37.403Z,100.00
2022-10-28T21:21:04.586Z,100.00
2022-10-28T21:23:31.654Z,100.00
2022-10-28T21:26:03.651Z,100.00
2022-10-28T21:28:32.307Z,100.00
2022-10-28T21:31:04.011Z,100.00
2022-10-28T21:33:31.008Z,100.00
2022-10-28T21:35:59.625Z,100.00
2022-10-28T21:38:27.735Z,100.00
2022-10-28T21:41:01.234Z,100.00
2022-10-28T21:43:30.260Z,100.00
2022-10-28T21:45:56.774Z,100.00
2022-10-28T21:48:24.393Z,100.00
2022-10-28T21:50:52.831Z,100.00
2022-10-28T21:53:19.934Z,100.00
2022-10-28T21:55:49.021Z,100.00
2022-10-28T21:58:17.738Z,100.00
2022-10-28T22:00:44.857Z,100.00
2022-10-28T22:03:13.052Z,100.00
2022-10-28T22:05:39.655Z,100.00
2022-10-28T22:08:06.081Z,100.00
2022-10-28T22:10:32.703Z,100.00
2022-10-28T22:12:59.098Z,100.00
2022-10-28T22:15:25.785Z,100.00
2022-10-28T22:17:52.422Z,100.00
2022-10-28T22:20:19.073Z,100.00
2022-10-28T22:22:45.769Z,100.00
2022-10-28T22:25:12.372Z,100.00
2022-10-28T22:27:39.071Z,100.00
2022-10-28T22:30:06.229Z,100.00
2022-10-28T22:32:32.902Z,100.00
2022-10-28T22:34:59.290Z,100.00
2022-10-28T22:37:25.660Z,100.00
2022-10-28T22:39:52.282Z,100.00
2022-10-28T22:42:18.678Z,100.00
2022-10-28T22:44:45.393Z,100.00
2022-10-28T22:47:12.182Z,100.00
2022-10-28T22:49:38.556Z,100.00
2022-10-28T22:52:05.300Z,100.00
2022-10-28T22:54:31.972Z,100.00
2022-10-28T22:56:58.659Z,100.00
2022-10-28T22:59:25.682Z,100.00
2022-10-28T23:01:52.618Z,100.00
2022-10-28T23:04:19.070Z,100.00
2022-10-28T23:06:45.893Z,100.00
2022-10-28T23:09:12.848Z,100.00
2022-10-28T23:11:39.256Z,100.00
2022-10-28T23:14:05.702Z,100.00
2022-10-28T23:16:32.103Z,100.00
2022-10-28T23:19:01.006Z,100.00
2022-10-28T23:21:28.114Z,100.00
2022-10-28T23:23:59.853Z,100.00
2022-10-28T23:26:28.332Z,100.00
2022-10-28T23:28:59.735Z,100.00
2022-10-28T23:31:26.963Z,100.00
2022-10-28T23:33:54.657Z,100.00
2022-10-28T23:36:21.566Z,100.00
2022-10-28T23:38:48.240Z,100.00
2022-10-28T23:41:18.437Z,100.00
2022-10-28T23:43:45.763Z,100.00
2022-10-28T23:46:12.510Z,100.00
2022-10-28T23:48:39.249Z,100.00
2022-10-28T23:51:06.421Z,100.00
2022-10-28T23:53:33.183Z,100.00
2022-10-28T23:55:59.570Z,100.00
2022-10-28T23:58:27.013Z,100.00
